ADDS METAR Data INFO
IDs: Format: Raw Decoded Include TAF

Data at: 0543 UTC 11 Dec 2017

KAHQ 110535Z AUTO 00000KT 10SM CLR M01/M08 A3002 RMK AO2 T10061078
KAHQ 110515Z AUTO 00000KT 10SM CLR M01/M08 A3004 RMK AO2 T10101077
KAHQ 110455Z AUTO 00000KT 10SM CLR 00/M08 A3004 RMK AO2 T10041079
KAHQ 110435Z AUTO 00000KT 10SM CLR 00/M07 A3004 RMK AO2 T10011074
KAHQ 110415Z AUTO 23004KT 10SM CLR 01/M08 A3006 RMK AO2 T00111076
KAHQ 110355Z AUTO 00000KT 10SM CLR 04/M07 A3006 RMK AO2 T00391075
KAHQ 110335Z AUTO 25004KT 10SM CLR 04/M07 A3007 RMK AO2 T00401074
KAHQ 110315Z AUTO 25003KT 10SM CLR 01/M08 A3008 RMK AO2 T00091077
KAHQ 110255Z AUTO 00000KT 10SM CLR 00/M08 A3008 RMK AO2 T10021081
KAHQ 110235Z AUTO 00000KT 10SM CLR 01/M08 A3008 RMK AO2 T00141079
KAHQ 110215Z AUTO 27003KT 10SM CLR 04/M07 A3009 RMK AO2 T00351073
KAHQ 110155Z AUTO 25003KT 10SM CLR 03/M07 A3009 RMK AO2 T00331071
KAHQ 110135Z AUTO 24005KT 10SM CLR 03/M07 A3010 RMK AO2 T00301075
KAHQ 110115Z AUTO 25003KT 10SM CLR 06/M07 A3010 RMK AO2 T00551072
KAHQ 110055Z AUTO 23003KT 10SM CLR 06/M07 A3010 RMK AO2 T00601073
KAHQ 110035Z AUTO 26003KT 10SM CLR 08/M07 A3010 RMK AO2 T00781074
KAHQ 110015Z AUTO 00000KT 10SM CLR 08/M07 A3011 RMK AO2 T00761075
KAHQ 102355Z AUTO 22004KT 10SM CLR 07/M07 A3011 RMK AO2 T00731074 10135 20072
KAHQ 102335Z AUTO 00000KT 10SM CLR 09/M07 A3011 RMK AO2 T00931070
KAHQ 102315Z AUTO 00000KT 10SM CLR 10/M07 A3011 RMK AO2 T01001070
KAHQ 102255Z AUTO 00000KT 10SM CLR 10/M06 A3011 RMK AO2 T01021065
KAHQ 102235Z AUTO 29004KT 10SM CLR 10/M06 A3010 RMK AO2 T01031064
KAHQ 102215Z AUTO 30008KT 10SM CLR 12/M07 A3011 RMK AO2 T01201066
KAHQ 102155Z AUTO 30009KT 10SM CLR 13/M07 A3011 RMK AO2 T01301067
KAHQ 102135Z AUTO 29013KT 10SM CLR 13/M06 A3011 RMK AO2 T01301065
KAHQ 102115Z AUTO 29013KT 10SM CLR 13/M06 A3011 RMK AO2 T01341065
KAHQ 102055Z AUTO 30014KT 10SM CLR 13/M06 A3010 RMK AO2 T01331065
KAHQ 102035Z AUTO 29013KT 10SM CLR 14/M06 A3010 RMK AO2 T01351063
KAHQ 102015Z AUTO 31012G19KT 10SM CLR 13/M06 A3010 RMK AO2 T01341061
KAHQ 101955Z AUTO 30014KT 10SM CLR 13/M06 A3009 RMK AO2 T01311061
KAHQ 101935Z AUTO 30013G19KT 10SM CLR 12/M06 A3010 RMK AO2 T01241060
KAHQ 101915Z AUTO 31015G19KT 10SM CLR 12/M06 A3009 RMK AO2 T01221060
KAHQ 101855Z AUTO 31011G19KT 10SM CLR 12/M06 A3010 RMK AO2 T01171058
KAHQ 101835Z AUTO 31014KT 10SM CLR 12/M06 A3011 RMK AO2 T01201056
KAHQ 101815Z AUTO 31017G20KT 10SM CLR 12/M05 A3011 RMK AO2 T01151054
KAHQ 101755Z AUTO 31016G20KT 10SM CLR 11/M05 A3011 RMK AO2 T01111052 10111 20014
KAHQ 101735Z AUTO 34014KT 10SM CLR 11/M05 A3011 RMK AO2 T01061051
KAHQ 101715Z AUTO 33015G24KT 10SM CLR 10/M05 A3012 RMK AO2 T01011052
KAHQ 101655Z AUTO 33015G22KT 10SM CLR 10/M05 A3012 RMK AO2 T00951050
KAHQ 101635Z AUTO 32017G21KT 10SM CLR 09/M06 A3011 RMK AO2 T00851056
KAHQ 101615Z AUTO 32018G21KT 10SM CLR 08/M06 A3011 RMK AO2 T00841059
KAHQ 101555Z AUTO 32014KT 10SM CLR 08/M06 A3010 RMK AO2 T00771062
KAHQ 101535Z AUTO 31011KT 10SM CLR 07/M06 A3011 RMK AO2 T00701060
KAHQ 101515Z AUTO 31011KT 10SM CLR 06/M06 A3011 RMK AO2 T00611061
KAHQ 101455Z AUTO 30010KT 10SM CLR 05/M06 A3010 RMK AO2 T00501060
KAHQ 101435Z AUTO 30007KT 10SM CLR 04/M06 A3010 RMK AO2 T00361057
KAHQ 101415Z AUTO 30008KT 10SM CLR 03/M06 A3009 RMK AO2 T00301060
KAHQ 101355Z AUTO 29006KT 10SM CLR 02/M06 A3008 RMK AO2 T00151057
KAHQ 101335Z AUTO 31007KT 10SM CLR 03/M06 A3008 RMK AO2 T00251060
KAHQ 101315Z AUTO 31009KT 10SM CLR 03/M06 A3007 RMK AO2 T00321061
KAHQ 101255Z AUTO 32011KT 10SM CLR 03/M06 A3006 RMK AO2 T00341060
KAHQ 101235Z AUTO 31011KT 10SM CLR 04/M06 A3005 RMK AO2 T00361060
KAHQ 101215Z AUTO 31010KT 10SM CLR 03/M06 A3004 RMK AO2 T00331061
KAHQ 101155Z AUTO 32011KT 10SM CLR 04/M06 A3004 RMK AO2 T00401061 10052 20012
KAHQ 101135Z AUTO 31013G17KT 10SM CLR 05/M06 A3002 RMK AO2 T00451061
KAHQ 101115Z AUTO 31009KT 10SM CLR 04/M06 A3002 RMK AO2 T00391062
KAHQ 101055Z AUTO 31009KT 10SM CLR 04/M06 A3002 RMK AO2 T00431061
KAHQ 101035Z AUTO 30011KT 10SM CLR 04/M06 A3002 RMK AO2 T00421060
KAHQ 101015Z AUTO 31012G18KT 10SM CLR 05/M06 A3001 RMK AO2 T00481062
KAHQ 100955Z AUTO 31013G18KT 10SM CLR 05/M06 A3002 RMK AO2 T00501062
KAHQ 100935Z AUTO 31014KT 10SM CLR 05/M06 A3001 RMK AO2 T00461061
KAHQ 100915Z AUTO 30011KT 10SM CLR 04/M06 A3001 RMK AO2 T00361057
KAHQ 100855Z AUTO 29009KT 10SM CLR 03/M06 A3001 RMK AO2 T00291057
KAHQ 100835Z AUTO 29009KT 10SM CLR 03/M05 A3000 RMK AO2 T00321055
KAHQ 100815Z AUTO 29012KT 10SM CLR 04/M06 A3000 RMK AO2 T00411056
KAHQ 100755Z AUTO 29013KT 10SM CLR 04/M06 A3000 RMK AO2 T00371057
KAHQ 100735Z AUTO 28013KT 10SM CLR 04/M06 A3000 RMK AO2 T00381057
KAHQ 100715Z AUTO 29010KT 10SM CLR 03/M05 A3000 RMK AO2 T00261053
KAHQ 100655Z AUTO 28008KT 10SM CLR 02/M06 A3002 RMK AO2 T00161056
KAHQ 100635Z AUTO 27007KT 10SM CLR 01/M06 A3002 RMK AO2 T00131056
KAHQ 100615Z AUTO 26007KT 10SM CLR 02/M05 A3002 RMK AO2 T00161055
KAHQ 100555Z AUTO 24009KT 10SM CLR 01/M05 A3002 RMK AO2 T00121055 10013 21045 400421045
KAHQ 100535Z AUTO 25010KT 10SM CLR 01/M05 A3002 RMK AO2 T00101054
KAHQ 100515Z AUTO 24009KT 10SM CLR 01/M05 A3003 RMK AO2 T00131053
KAHQ 100455Z AUTO 24009KT 10SM CLR 00/M05 A3003 RMK AO2 T00041055
KAHQ 100435Z AUTO 24008KT 10SM CLR 00/M06 A3004 RMK AO2 T10021057
KAHQ 100415Z AUTO 23008KT 10SM CLR M01/M06 A3004 RMK AO2 T10091061
KAHQ 100355Z AUTO 21006KT 10SM CLR M03/M07 A3007 RMK AO2 T10331075
KAHQ 100335Z AUTO 19003KT 10SM CLR M03/M08 A3009 RMK AO2 T10331077
KAHQ 100315Z AUTO 19004KT 10SM CLR M04/M08 A3009 RMK AO2 T10401080
KAHQ 100255Z AUTO 20005KT 10SM SCT110 M03/M07 A3010 RMK AO2 T10291073
KAHQ 100235Z AUTO 20004KT 10SM SCT110 M03/M08 A3011 RMK AO2 T10341077
KAHQ 100215Z AUTO 22004KT 10SM SCT110 M03/M07 A3012 RMK AO2 T10261071
KAHQ 100155Z AUTO 21004KT 10SM CLR M03/M07 A3012 RMK AO2 T10281074
KAHQ 100135Z AUTO 19005KT 10SM CLR M04/M08 A3013 RMK AO2 T10371083
KAHQ 100115Z AUTO 18004KT 10SM CLR M03/M08 A3014 RMK AO2 T10301078
KAHQ 100055Z AUTO 18003KT 10SM CLR M03/M08 A3014 RMK AO2 T10291080
KAHQ 100035Z AUTO 18004KT 10SM CLR M01/M07 A3016 RMK AO2 T10121071
KAHQ 100015Z AUTO 20003KT 10SM CLR M01/M07 A3016 RMK AO2 T10061071
KAHQ 092355Z AUTO 21003KT 10SM CLR 00/M06 A3017 RMK AO2 T10041063 10042 21004
KAHQ 092335Z AUTO 00000KT 10SM CLR 00/M07 A3017 RMK AO2 T10011066
KAHQ 092315Z AUTO 00000KT 10SM CLR 01/M06 A3018 RMK AO2 T00081064
KAHQ 092255Z AUTO 00000KT 10SM CLR 01/M06 A3018 RMK AO2 T00101059
KAHQ 092235Z AUTO 31003KT 10SM CLR 02/M07 A3018 RMK AO2 T00231070
KAHQ 092215Z AUTO 32005KT 10SM CLR 04/M07 A3019 RMK AO2 T00351067
KAHQ 092155Z AUTO 31008KT 10SM CLR 04/M07 A3018 RMK AO2 T00391069
KAHQ 092135Z AUTO 33009KT 10SM CLR 04/M06 A3017 RMK AO2 T00421065
KAHQ 092115Z AUTO 33009KT 10SM CLR 04/M06 A3017 RMK AO2 T00421065
KAHQ 092055Z AUTO 31011KT 10SM CLR 04/M06 A3017 RMK AO2 T00411064
KAHQ 092035Z AUTO 31010KT 10SM CLR 04/M06 A3016 RMK AO2 T00411062
KAHQ 092015Z AUTO 33011G15KT 10SM CLR 04/M06 A3016 RMK AO2 T00351064
KAHQ 091955Z AUTO 33012KT 10SM CLR 03/M06 A3016 RMK AO2 T00341062
KAHQ 091935Z AUTO 35015G18KT 10SM CLR 03/M06 A3017 RMK AO2 T00321063
KAHQ 091915Z AUTO 35017KT 10SM CLR 03/M06 A3017 RMK AO2 T00271062
KAHQ 091855Z AUTO 33014G21KT 10SM CLR 03/M06 A3018 RMK AO2 T00251061
KAHQ 091835Z AUTO 33017G23KT 10SM CLR 02/M06 A3019 RMK AO2 T00201061
KAHQ 091815Z AUTO 32017G25KT 10SM SCT026 02/M06 A3020 RMK AO2 T00181059
KAHQ 091755Z AUTO 34017G21KT 10SM SCT026 02/M06 A3020 RMK AO2 T00181059 10018 21030